Ambridge, PA (15003)

4:12 PM EDT on June 21, 2018 (GMT -0400)
Ambridge Historic District | | Change Station

Elev 751 ft 40.60 °N, 80.23 °W | Updated 5 seconds ago

Mostly Cloudy
Mostly Cloudy
81 °F
Feels Like 83 °F
N
2.9
Wind Variable Wind from SE
Gusts 6.0 mph

Today
High -- | Low -- °F
--% Chance of Precip.
Yesterday
High -- | Low -- °F
Precip. -- in
Pressure 29.84 in
Visibility 10.0 miles
Clouds Few 2900 ft
Scattered Clouds 4500 ft
Mostly Cloudy 25000 ft
Heat Index 83 °F
Dew Point 65 °F
Humidity 58%
Rainfall 0.00 in
Snow Depth Not available.
5:50 AM 8:55 PM
Waxing Gibbous, 65% visible
METAR KPIT 211951Z VRB05KT 10SM FEW029 SCT045 BKN250 24/18 A2984 RMK AO2 SLP103 T02440178
Pressure 29.84 in
Visibility 10.0 miles
Clouds Few 2900 ft
Scattered Clouds 4500 ft
Mostly Cloudy 25000 ft
Heat Index 83 °F
Dew Point 65 °F
Humidity 58%
Rainfall 0.00 in
Snow Depth Not available.
5:50 AM 8:55 PM
Waxing Gibbous, 65% visible
METAR KPIT 211951Z VRB05KT 10SM FEW029 SCT045 BKN250 24/18 A2984 RMK AO2 SLP103 T02440178

Get Severe Weather Alerts

Thanks for signing up!

Be on the lookout for a verification email in your inbox.

You'll start receiving the daily forecast at 6 AM.

×

10-Day Weather Forecast

Almanac

Astronomy

Jun. 21, 2018 Rise Set
Actual Time
Civil Twilight
Nautical Twilight
Astronomical Twilight
Moon
Length of Visible Light
Length of Day
Tomorrow will be .
, % of the Moon is Illuminated

Today's Extremes

State Highs State Lows

Community

WunderPhotos

Category 6

Welcome to Category 6. This is the collective home for Weather Underground's featured writeups by Dr. Jeff Masters (right), Bob Henson (left), Chris Burt, and other regular contributors.

Nearby

Air Quality

  Air Quality AQ Index Pollutant
Not available.

Snow Depth

Station Depth Elevation

Earthquake Activity

City Distance Mag. Time & Date
Minimum magnitude displayed is 2.5.

Coastal Water Temperatures

Place Temperature

Stations

Nearby Weather Stations

Station Location Temp. Windchill Dew Point Humidity Wind Precip. Elev Updated Type
                   

Watches & Warnings

There are currently no watches in effect.